createdAt,value
2023-01-27T00:00:14.407Z,14.75
2023-01-27T00:02:42.672Z,15.43
2023-01-27T00:05:11.645Z,12.48
2023-01-27T00:07:38.629Z,13.70
2023-01-27T00:10:06.308Z,16.15
2023-01-27T00:12:51.072Z,14.20
2023-01-27T00:15:17.601Z,12.80
2023-01-27T00:17:44.030Z,13.80
2023-01-27T00:20:11.343Z,15.77
2023-01-27T00:22:56.319Z,15.30
2023-01-27T00:25:22.773Z,11.48
2023-01-27T00:27:49.200Z,16.17
2023-01-27T00:30:15.704Z,12.63
2023-01-27T00:33:00.433Z,13.35
2023-01-27T00:35:27.515Z,15.52
2023-01-27T00:37:54.303Z,15.48
2023-01-27T00:40:20.840Z,15.27
2023-01-27T00:42:47.271Z,17.02
2023-01-27T00:45:32.382Z,18.67
2023-01-27T00:47:58.811Z,21.13
2023-01-27T00:50:25.250Z,17.85
2023-01-27T00:52:52.788Z,19.33
2023-01-27T00:55:19.448Z,15.52
2023-01-27T00:57:45.938Z,15.88
2023-01-27T01:00:14.146Z,17.73
2023-01-27T01:02:40.873Z,17.40
2023-01-27T01:05:07.700Z,16.88
2023-01-27T01:07:34.976Z,18.80
2023-01-27T01:10:01.425Z,18.45
2023-01-27T01:12:27.897Z,22.50
2023-01-27T01:14:54.309Z,20.90
2023-01-27T01:17:21.668Z,18.00
2023-01-27T01:19:48.313Z,17.35
2023-01-27T01:22:14.723Z,25.80
2023-01-27T01:24:41.114Z,21.40
2023-01-27T01:27:07.500Z,21.17
2023-01-27T01:29:33.922Z,19.58
2023-01-27T01:32:00.481Z,21.83
2023-01-27T01:34:26.954Z,18.67
2023-01-27T01:36:53.367Z,23.30
2023-01-27T01:39:19.757Z,21.02
2023-01-27T01:41:46.936Z,22.92
2023-01-27T01:44:30.602Z,14.82
2023-01-27T01:47:00.033Z,16.02
2023-01-27T01:49:36.506Z,19.17
2023-01-27T01:52:09.193Z,18.52
2023-01-27T01:54:43.307Z,15.23
2023-01-27T01:57:16.389Z,16.70
2023-01-27T01:59:48.617Z,16.90
2023-01-27T02:02:19.747Z,18.10
2023-01-27T02:04:56.378Z,15.98
2023-01-27T02:07:37.336Z,14.55
2023-01-27T02:10:04.480Z,16.00
2023-01-27T02:12:35.528Z,13.73
2023-01-27T02:15:02.072Z,17.15
2023-01-27T02:17:28.671Z,16.20
2023-01-27T02:20:28.663Z,17.92
2023-01-27T02:23:14.017Z,18.80
2023-01-27T02:25:44.696Z,17.40
2023-01-27T02:28:11.092Z,13.75
2023-01-27T02:30:37.618Z,17.05
2023-01-27T02:33:11.552Z,19.02
2023-01-27T02:35:44.086Z,16.50
2023-01-27T02:38:13.051Z,16.02
2023-01-27T02:40:40.538Z,16.80
2023-01-27T02:43:07.094Z,14.70
2023-01-27T02:45:33.559Z,17.77
2023-01-27T02:48:01.686Z,14.38
2023-01-27T02:50:28.652Z,16.35
2023-01-27T02:52:55.139Z,18.17
2023-01-27T02:55:22.260Z,14.80
2023-01-27T02:57:50.940Z,16.23
2023-01-27T03:00:31.103Z,17.48
2023-01-27T03:02:57.639Z,19.10
2023-01-27T03:05:24.674Z,18.35
2023-01-27T03:07:51.255Z,15.02
2023-01-27T03:10:19.361Z,16.63
2023-01-27T03:12:45.847Z,17.40
2023-01-27T03:15:32.000Z,19.42
2023-01-27T03:18:13.375Z,18.23
2023-01-27T03:20:41.165Z,15.40
2023-01-27T03:23:08.048Z,18.85
2023-01-27T03:25:35.863Z,19.58
2023-01-27T03:28:02.781Z,19.08
2023-01-27T03:30:52.464Z,18.23
2023-01-27T03:33:24.393Z,19.27
2023-01-27T03:36:12.270Z,18.10
2023-01-27T03:39:04.755Z,18.08
2023-01-27T03:41:50.010Z,19.83
2023-01-27T03:44:35.224Z,19.70
2023-01-27T03:47:01.932Z,18.88
2023-01-27T03:49:28.591Z,20.45
2023-01-27T03:51:56.118Z,21.02
2023-01-27T03:54:22.495Z,19.38
2023-01-27T03:56:49.003Z,16.95
2023-01-27T03:59:17.070Z,16.85
2023-01-27T04:01:44.101Z,21.02
2023-01-27T04:04:29.958Z,20.23
2023-01-27T04:06:58.791Z,15.80
2023-01-27T04:09:36.139Z,17.05
2023-01-27T04:12:05.323Z,15.73
2023-01-27T04:14:43.827Z,18.30
2023-01-27T04:17:13.109Z,23.33
2023-01-27T04:19:39.782Z,24.42
2023-01-27T04:22:06.913Z,21.83
2023-01-27T04:24:33.368Z,20.25
2023-01-27T04:27:05.468Z,24.02
2023-01-27T04:29:36.097Z,22.98
2023-01-27T04:32:05.002Z,24.23
2023-01-27T04:34:32.084Z,21.27
2023-01-27T04:36:59.538Z,24.95
2023-01-27T04:39:26.453Z,22.90
2023-01-27T04:41:52.942Z,23.23
2023-01-27T04:44:20.286Z,25.63
2023-01-27T04:46:47.240Z,24.92
2023-01-27T04:49:13.659Z,23.98
2023-01-27T04:51:40.115Z,24.98
2023-01-27T04:54:06.620Z,23.75
2023-01-27T04:56:35.956Z,24.63
2023-01-27T04:59:08.207Z,22.38
2023-01-27T05:01:34.671Z,22.10
2023-01-27T05:04:01.141Z,25.33
2023-01-27T05:06:27.821Z,25.98
2023-01-27T05:08:54.319Z,28.17
2023-01-27T05:11:21.183Z,25.20
2023-01-27T05:13:47.981Z,27.77
2023-01-27T05:16:27.507Z,24.65
2023-01-27T05:18:54.182Z,31.05
2023-01-27T05:21:23.354Z,24.38
2023-01-27T05:23:50.221Z,26.95
2023-01-27T05:26:22.485Z,22.48
2023-01-27T05:28:50.661Z,22.20
2023-01-27T05:31:29.084Z,24.27
2023-01-27T05:33:57.856Z,21.30
2023-01-27T05:36:26.012Z,25.25
2023-01-27T05:38:53.980Z,23.15
2023-01-27T05:41:20.810Z,27.10
2023-01-27T05:43:52.016Z,24.60
2023-01-27T05:46:21.525Z,23.10
2023-01-27T05:48:50.621Z,27.30
2023-01-27T05:51:19.422Z,23.65
2023-01-27T05:53:46.300Z,29.20
2023-01-27T05:56:18.744Z,24.08
2023-01-27T05:58:45.488Z,25.23
2023-01-27T06:01:17.850Z,28.75
2023-01-27T06:03:45.068Z,24.90
2023-01-27T06:06:13.462Z,28.77
2023-01-27T06:08:40.258Z,27.90
2023-01-27T06:11:07.139Z,27.65
2023-01-27T06:13:38.537Z,24.70
2023-01-27T06:18:33.104Z,29.77
2023-01-27T06:21:01.124Z,24.73
2023-01-27T06:23:28.270Z,27.20
2023-01-27T06:25:56.643Z,27.00
2023-01-27T06:28:29.152Z,35.83
2023-01-27T06:30:57.266Z,33.28
2023-01-27T06:33:23.807Z,33.05
2023-01-27T06:35:50.264Z,30.08
2023-01-27T06:38:16.854Z,28.75
2023-01-27T06:40:44.087Z,28.95
2023-01-27T06:43:14.224Z,32.05
2023-01-27T06:45:41.114Z,26.95
2023-01-27T06:48:11.200Z,29.67
2023-01-27T06:50:37.660Z,26.58
2023-01-27T06:53:06.173Z,26.10
2023-01-27T06:55:33.130Z,29.42
2023-01-27T06:58:01.324Z,33.13
2023-01-27T07:00:27.778Z,25.52
2023-01-27T07:02:57.570Z,30.88
2023-01-27T07:05:24.632Z,36.35
2023-01-27T07:07:51.114Z,29.95
2023-01-27T07:10:17.914Z,26.83
2023-01-27T07:12:44.358Z,26.38
2023-01-27T07:15:11.812Z,31.92
2023-01-27T07:17:38.731Z,25.77
2023-01-27T07:20:07.964Z,25.42
2023-01-27T07:22:34.401Z,21.58
2023-01-27T07:25:01.589Z,19.02
2023-01-27T07:27:28.194Z,25.20
2023-01-27T07:29:54.611Z,27.55
2023-01-27T07:32:21.431Z,23.98
2023-01-27T07:34:47.831Z,24.08
2023-01-27T07:37:14.515Z,25.25
2023-01-27T07:39:40.940Z,25.70
2023-01-27T07:42:08.572Z,21.08
2023-01-27T07:44:36.327Z,19.80
2023-01-27T07:47:02.916Z,20.73
2023-01-27T07:49:29.549Z,19.17
2023-01-27T07:51:56.004Z,20.98
2023-01-27T07:54:22.709Z,22.52
2023-01-27T07:56:49.125Z,23.42
2023-01-27T07:59:15.571Z,24.00
2023-01-27T08:01:43.229Z,22.63
2023-01-27T08:04:09.899Z,23.02
2023-01-27T08:06:39.452Z,21.48
2023-01-27T08:09:06.449Z,19.48
2023-01-27T08:11:33.360Z,22.10
2023-01-27T08:13:59.777Z,24.63
2023-01-27T08:16:26.209Z,25.15
2023-01-27T08:18:53.899Z,24.17
2023-01-27T08:21:21.194Z,21.48
2023-01-27T08:23:47.688Z,28.70
2023-01-27T08:26:14.293Z,26.30
2023-01-27T08:28:40.864Z,25.10
2023-01-27T08:31:11.252Z,23.02
2023-01-27T08:33:37.834Z,24.03
2023-01-27T08:36:17.850Z,22.45
2023-01-27T08:38:45.649Z,21.48
2023-01-27T08:41:17.813Z,25.70
2023-01-27T08:43:44.236Z,26.70
2023-01-27T08:46:11.699Z,25.17
2023-01-27T08:48:38.619Z,25.10
2023-01-27T08:51:06.595Z,27.20
2023-01-27T08:53:33.888Z,27.50
2023-01-27T08:56:07.249Z,23.20
2023-01-27T08:58:34.588Z,22.98
2023-01-27T09:01:02.439Z,25.02
2023-01-27T09:03:33.355Z,26.15
2023-01-27T09:06:00.572Z,23.63
2023-01-27T09:08:27.901Z,40.58
2023-01-27T09:10:54.432Z,43.80
2023-01-27T09:13:22.271Z,28.20
2023-01-27T09:15:52.742Z,29.27
2023-01-27T09:18:19.953Z,29.48
2023-01-27T09:20:46.640Z,27.67
2023-01-27T09:23:13.121Z,27.60
2023-01-27T09:25:39.679Z,27.98
2023-01-27T09:28:06.174Z,25.23
2023-01-27T09:30:32.722Z,26.13
2023-01-27T09:33:00.365Z,30.42
2023-01-27T09:35:36.290Z,30.60
2023-01-27T09:38:04.552Z,28.33
2023-01-27T09:40:48.952Z,27.77
2023-01-27T09:43:39.248Z,24.73
2023-01-27T09:46:27.338Z,25.85
2023-01-27T09:49:12.439Z,26.15
2023-01-27T09:52:04.394Z,27.55
2023-01-27T09:55:09.536Z,23.05
2023-01-27T09:57:57.061Z,26.42
2023-01-27T10:00:34.010Z,22.58
2023-01-27T10:03:15.706Z,14.23
2023-01-27T10:06:19.938Z,17.50
2023-01-27T10:09:07.764Z,14.48
2023-01-27T10:11:40.770Z,16.38
2023-01-27T10:14:18.598Z,20.10
2023-01-27T10:17:00.670Z,16.55
2023-01-27T10:19:46.161Z,16.55
2023-01-27T10:22:24.476Z,14.88
2023-01-27T10:25:30.293Z,16.08
2023-01-27T10:27:58.957Z,30.40
2023-01-27T10:30:35.409Z,43.65
2023-01-27T10:33:18.895Z,35.15
2023-01-27T10:35:52.654Z,33.22
2023-01-27T10:38:30.103Z,23.08
2023-01-27T10:41:02.681Z,22.55
2023-01-27T10:43:42.599Z,27.05
2023-01-27T10:46:36.228Z,23.10
2023-01-27T10:49:46.672Z,31.92
2023-01-27T10:52:18.204Z,34.38
2023-01-27T10:54:52.769Z,29.20
2023-01-27T10:57:27.465Z,27.50
2023-01-27T11:00:41.870Z,51.40
2023-01-27T11:03:10.987Z,31.85
2023-01-27T11:05:41.396Z,28.00
2023-01-27T11:08:21.193Z,22.67
2023-01-27T11:11:11.501Z,19.33
2023-01-27T11:13:38.916Z,20.85
2023-01-27T11:16:09.475Z,21.75
2023-01-27T11:18:38.631Z,24.20
2023-01-27T11:21:09.621Z,23.52
2023-01-27T11:23:46.665Z,23.67
2023-01-27T11:26:27.073Z,25.50
2023-01-27T11:29:09.549Z,22.20
2023-01-27T11:31:50.954Z,22.00
2023-01-27T11:34:35.766Z,26.95
2023-01-27T11:37:13.323Z,21.70
2023-01-27T11:39:39.768Z,20.13
2023-01-27T11:42:06.183Z,21.38
2023-01-27T11:44:34.410Z,24.70
2023-01-27T11:47:03.920Z,23.30
2023-01-27T11:49:36.859Z,23.08
2023-01-27T11:52:15.111Z,23.02
2023-01-27T11:55:05.254Z,23.25
2023-01-27T11:57:31.815Z,20.73
2023-01-27T12:00:07.608Z,21.10
2023-01-27T12:02:44.944Z,24.63
2023-01-27T12:05:17.791Z,22.67
2023-01-27T12:08:01.793Z,21.05
2023-01-27T12:10:39.038Z,21.95
2023-01-27T12:13:19.516Z,21.35
2023-01-27T12:15:58.975Z,21.75
2023-01-27T12:18:25.414Z,18.20
2023-01-27T12:21:04.516Z,19.90
2023-01-27T12:23:39.319Z,22.85
2023-01-27T12:26:11.820Z,20.95
2023-01-27T12:28:41.384Z,21.23
2023-01-27T12:31:20.605Z,24.70
2023-01-27T12:33:58.522Z,22.67
2023-01-27T12:36:25.357Z,31.40
2023-01-27T12:38:54.116Z,21.02
2023-01-27T12:41:42.461Z,27.85
2023-01-27T12:44:16.853Z,25.90
2023-01-27T12:47:02.674Z,20.77
2023-01-27T12:49:34.899Z,21.20
2023-01-27T12:52:04.873Z,20.63
2023-01-27T12:54:32.825Z,24.90
2023-01-27T12:57:05.668Z,24.17
2023-01-27T12:59:33.292Z,25.35
2023-01-27T13:02:17.877Z,26.23
2023-01-27T13:05:00.190Z,53.30
2023-01-27T13:07:34.764Z,53.95
2023-01-27T13:10:04.469Z,35.88
2023-01-27T13:12:47.502Z,21.40
2023-01-27T13:15:19.381Z,28.38
2023-01-27T13:17:50.844Z,21.13
2023-01-27T13:23:14.672Z,24.85
2023-01-27T13:25:50.892Z,24.70
2023-01-27T13:28:23.990Z,22.25
2023-01-27T13:30:56.402Z,23.80
2023-01-27T13:33:47.948Z,23.20
2023-01-27T13:36:33.141Z,30.05
2023-01-27T13:39:18.395Z,29.00
2023-01-27T13:41:56.865Z,27.70
2023-01-27T13:44:36.817Z,23.80
2023-01-27T13:47:11.658Z,22.20
2023-01-27T13:49:44.325Z,29.25
2023-01-27T13:52:11.232Z,34.67
2023-01-27T13:54:37.734Z,32.50
2023-01-27T13:57:22.888Z,27.88
2023-01-27T14:00:19.578Z,28.10
2023-01-27T14:03:13.930Z,30.75
2023-01-27T14:05:53.191Z,28.17
2023-01-27T14:08:35.843Z,30.63
2023-01-27T14:11:27.220Z,34.90
2023-01-27T14:14:09.224Z,28.27
2023-01-27T14:16:50.973Z,28.50
2023-01-27T14:19:35.177Z,32.47
2023-01-27T14:22:20.309Z,25.70
2023-01-27T14:25:00.007Z,24.67
2023-01-27T14:27:34.881Z,32.45
2023-01-27T14:30:27.386Z,25.35
2023-01-27T14:33:12.180Z,23.63
2023-01-27T14:35:38.540Z,33.30
2023-01-27T14:38:11.359Z,33.78
2023-01-27T14:41:20.137Z,32.58
2023-01-27T14:44:01.824Z,33.40
2023-01-27T14:46:50.226Z,31.30
2023-01-27T14:49:54.388Z,31.83
2023-01-27T14:52:37.173Z,35.33
2023-01-27T14:55:21.899Z,30.92
2023-01-27T14:57:56.683Z,25.52
2023-01-27T15:00:54.039Z,30.88
2023-01-27T15:03:24.403Z,27.65
2023-01-27T15:06:01.857Z,32.60
2023-01-27T15:08:52.740Z,28.90
2023-01-27T15:11:43.928Z,35.92
2023-01-27T15:14:48.897Z,34.38
2023-01-27T15:17:33.441Z,28.02
2023-01-27T15:20:18.630Z,38.80
2023-01-27T15:22:53.429Z,38.05
2023-01-27T15:25:39.952Z,39.35
2023-01-27T15:28:13.433Z,36.50
2023-01-27T15:30:41.410Z,35.92
2023-01-27T15:33:48.674Z,43.17
2023-01-27T15:36:32.603Z,39.95
2023-01-27T15:39:11.317Z,46.15
2023-01-27T15:41:51.186Z,34.38
2023-01-27T15:44:32.359Z,34.28
2023-01-27T15:47:26.173Z,33.88
2023-01-27T15:50:33.942Z,34.40
2023-01-27T15:53:04.348Z,33.33
2023-01-27T15:55:33.555Z,36.13
2023-01-27T15:58:06.165Z,36.50
2023-01-27T16:00:38.665Z,37.35
2023-01-27T16:03:17.230Z,38.50
2023-01-27T16:05:52.350Z,35.03
2023-01-27T16:08:20.332Z,39.72
2023-01-27T16:10:46.843Z,47.17
2023-01-27T16:13:29.964Z,39.15
2023-01-27T16:16:18.168Z,39.83
2023-01-27T16:19:04.705Z,36.83
2023-01-27T16:21:55.045Z,42.85
2023-01-27T16:24:32.981Z,39.90
2023-01-27T16:27:14.704Z,40.97
2023-01-27T16:30:05.799Z,47.20
2023-01-27T16:32:42.548Z,41.10
2023-01-27T16:35:18.482Z,39.47
2023-01-27T16:38:26.685Z,37.63
2023-01-27T16:40:59.529Z,41.53
2023-01-27T16:43:31.801Z,36.58
2023-01-27T16:46:01.626Z,35.03
2023-01-27T16:48:46.288Z,41.42
2023-01-27T16:51:18.500Z,38.45
2023-01-27T16:53:47.753Z,40.55
2023-01-27T16:56:27.523Z,43.55
2023-01-27T16:59:07.372Z,40.10
2023-01-27T17:01:41.763Z,36.90
2023-01-27T17:04:19.990Z,33.28
2023-01-27T17:06:48.912Z,36.50
2023-01-27T17:09:24.527Z,38.30
2023-01-27T17:11:51.103Z,36.95
2023-01-27T17:14:29.905Z,35.22
2023-01-27T17:17:01.231Z,37.70
2023-01-27T17:19:31.236Z,36.58
2023-01-27T17:22:10.039Z,38.47
2023-01-27T17:24:40.235Z,43.28
2023-01-27T17:27:24.213Z,42.67
2023-01-27T17:29:55.313Z,53.40
2023-01-27T17:32:31.269Z,60.47
2023-01-27T17:35:00.367Z,42.85
2023-01-27T17:37:29.416Z,26.90
2023-01-27T17:39:58.587Z,32.75
2023-01-27T17:42:34.152Z,32.75
2023-01-27T17:45:22.651Z,35.53
2023-01-27T17:47:49.762Z,34.25
2023-01-27T17:50:25.510Z,29.65
2023-01-27T17:52:56.216Z,29.25
2023-01-27T17:55:24.782Z,26.70
2023-01-27T17:58:04.457Z,30.40
2023-01-27T18:00:37.998Z,27.45
2023-01-27T18:03:16.631Z,32.00
2023-01-27T18:05:45.179Z,25.27
2023-01-27T18:08:11.703Z,30.52
2023-01-27T18:10:44.012Z,30.52
2023-01-27T18:13:37.068Z,28.52
2023-01-27T18:16:15.933Z,32.22
2023-01-27T18:18:43.155Z,28.60
2023-01-27T18:21:09.691Z,30.75
2023-01-27T18:23:46.640Z,33.78
2023-01-27T18:26:13.007Z,33.55
2023-01-27T18:28:40.983Z,31.67
2023-01-27T18:31:18.583Z,35.22
2023-01-27T18:33:46.387Z,30.58
2023-01-27T18:36:22.115Z,26.40
2023-01-27T18:38:50.552Z,26.90
2023-01-27T18:41:27.716Z,35.17
2023-01-27T18:43:55.239Z,34.80
2023-01-27T18:46:21.987Z,33.72
2023-01-27T18:48:48.544Z,31.45
2023-01-27T18:51:16.411Z,30.30
2023-01-27T18:53:43.148Z,27.02
2023-01-27T18:56:09.713Z,27.65
2023-01-27T18:58:36.178Z,28.38
2023-01-27T19:01:03.560Z,29.00
2023-01-27T19:03:34.399Z,27.10
2023-01-27T19:06:01.275Z,28.10
2023-01-27T19:08:27.882Z,30.80
2023-01-27T19:10:54.407Z,27.13
2023-01-27T19:13:20.871Z,30.95
2023-01-27T19:15:52.655Z,33.15
2023-01-27T19:18:26.184Z,35.58
2023-01-27T19:20:53.243Z,27.98
2023-01-27T19:23:21.032Z,32.53
2023-01-27T19:25:50.055Z,29.38
2023-01-27T19:28:23.879Z,26.50
2023-01-27T19:30:50.544Z,30.10
2023-01-27T19:33:24.129Z,25.20
2023-01-27T19:36:10.542Z,30.23
2023-01-27T19:38:36.975Z,29.63
2023-01-27T19:41:03.379Z,28.70
2023-01-27T19:43:29.774Z,30.92
2023-01-27T19:45:56.242Z,27.52
2023-01-27T19:48:24.240Z,28.55
2023-01-27T19:50:52.121Z,24.48
2023-01-27T19:53:20.041Z,28.20
2023-01-27T19:55:47.252Z,24.23
2023-01-27T19:58:25.252Z,26.42
2023-01-27T20:00:52.988Z,27.77
2023-01-27T20:03:19.542Z,29.38
2023-01-27T20:05:46.237Z,32.10
2023-01-27T20:08:15.714Z,28.02
2023-01-27T20:10:42.495Z,27.60
2023-01-27T20:13:17.809Z,31.13
2023-01-27T20:15:45.576Z,28.63
2023-01-27T20:18:16.726Z,27.45
2023-01-27T20:20:44.267Z,24.55
2023-01-27T20:23:17.404Z,28.95
2023-01-27T20:25:43.915Z,28.60
2023-01-27T20:28:12.048Z,32.80
2023-01-27T20:30:38.844Z,30.33
2023-01-27T20:33:05.710Z,32.95
2023-01-27T20:35:32.329Z,26.83
2023-01-27T20:37:58.953Z,30.75
2023-01-27T20:40:28.171Z,28.10
2023-01-27T20:42:54.682Z,33.22
2023-01-27T20:45:22.116Z,29.30
2023-01-27T20:47:50.835Z,27.27
2023-01-27T20:50:18.139Z,30.05
2023-01-27T20:52:45.192Z,32.72
2023-01-27T20:55:13.400Z,30.27
2023-01-27T20:57:40.207Z,36.03
2023-01-27T21:00:07.615Z,30.15
2023-01-27T21:02:34.537Z,32.85
2023-01-27T21:05:00.987Z,31.73
2023-01-27T21:07:27.549Z,36.35
2023-01-27T21:09:54.978Z,31.77
2023-01-27T21:12:21.485Z,28.77
2023-01-27T21:14:48.048Z,30.65
2023-01-27T21:17:14.629Z,29.98
2023-01-27T21:19:41.111Z,36.45
2023-01-27T21:22:07.553Z,34.72
2023-01-27T21:24:35.391Z,41.05
2023-01-27T21:27:01.810Z,38.30
2023-01-27T21:29:28.304Z,31.23
2023-01-27T21:31:54.787Z,38.92
2023-01-27T21:34:21.698Z,32.10
2023-01-27T21:36:48.335Z,35.90
2023-01-27T21:39:14.881Z,29.15
2023-01-27T21:41:53.532Z,32.10
2023-01-27T21:44:47.435Z,35.13
2023-01-27T21:47:18.832Z,39.75
2023-01-27T21:52:39.498Z,33.22
2023-01-27T21:55:08.494Z,29.77
2023-01-27T21:57:35.035Z,30.65
2023-01-27T22:00:01.580Z,34.95
2023-01-27T22:02:38.920Z,30.45
2023-01-27T22:05:05.870Z,37.58
2023-01-27T22:07:37.992Z,29.65
2023-01-27T22:10:10.733Z,32.65
2023-01-27T22:12:37.143Z,33.22
2023-01-27T22:15:03.900Z,34.33
2023-01-27T22:17:30.358Z,37.45
2023-01-27T22:19:56.743Z,32.42
2023-01-27T22:22:23.169Z,33.03
2023-01-27T22:24:49.559Z,30.90
2023-01-27T22:27:15.979Z,32.58
2023-01-27T22:29:42.411Z,36.80
2023-01-27T22:32:08.876Z,38.80
2023-01-27T22:34:35.345Z,33.40
2023-01-27T22:37:01.856Z,28.95
2023-01-27T22:39:28.443Z,30.13
2023-01-27T22:41:54.862Z,29.48
2023-01-27T22:44:21.301Z,36.47
2023-01-27T22:46:49.860Z,33.97
2023-01-27T22:49:16.270Z,31.30
2023-01-27T22:51:42.911Z,28.55
2023-01-27T22:54:10.328Z,28.58
2023-01-27T22:56:36.808Z,35.58
2023-01-27T22:59:03.954Z,33.47
2023-01-27T23:01:30.487Z,32.25
2023-01-27T23:03:56.888Z,36.63
2023-01-27T23:06:23.339Z,32.42
2023-01-27T23:08:49.736Z,31.48
2023-01-27T23:11:16.298Z,35.47
2023-01-27T23:13:42.778Z,37.40
2023-01-27T23:16:10.045Z,37.85
2023-01-27T23:18:36.722Z,35.42
2023-01-27T23:21:06.358Z,34.00
2023-01-27T23:23:33.923Z,35.50
2023-01-27T23:26:00.368Z,34.70
2023-01-27T23:28:26.916Z,32.65
2023-01-27T23:30:53.826Z,33.17
2023-01-27T23:33:20.747Z,35.85
2023-01-27T23:35:47.699Z,32.33
2023-01-27T23:38:31.455Z,30.75
2023-01-27T23:41:03.567Z,31.40
2023-01-27T23:43:31.033Z,33.10
2023-01-27T23:45:58.051Z,31.48
2023-01-27T23:48:24.738Z,29.20
2023-01-27T23:50:51.142Z,27.05
2023-01-27T23:53:17.580Z,29.08
2023-01-27T23:55:44.258Z,30.95
2023-01-27T23:58:10.704Z,27.60
